KMML/MML METAR and TAF weather

Enter ICAO airport designator
Station Type Date Time Source
KMML METAR 2020/07/11 00:56 UTC NOAA

KMML 110056Z AUTO 21004KT 10SM CLR 31/21 A2996 RMK AO2 SLP139 T03110211


Station Type Date Time Source
KMML Decoded METAR 2020/07/11 00:56 UTC NOAA

Marshall, Southwest Minnesota Regional Airport - Marshall/Ryan Field, MN, United States (KMML) 44-27N 095-49W
Jul 10, 2020 - 08:56 PM EDT / 2020.07.11 0056 UTC
Wind: from the SSW (210 degrees) at 5 MPH (4 KT):0
Visibility: 10 mile(s):0
Sky conditions: clear
Temperature: 88.0 F (31.1 C)
Dew Point: 70.0 F (21.1 C)
Relative Humidity: 55%
Pressure (altimeter): 29.96 in. Hg (1014 hPa)
ob: KMML 110056Z AUTO 21004KT 10SM CLR 31/21 A2996 RMK AO2 SLP139 T03110211
cycle: 1

Station Type Date Time Source
KMML TAF UTC NOAA

Error!

Example: see airport list